Time;durP1;ratioP1;P1;durP2;ratioP2;P2;SDS_P1;SDS_P2;PMS_P1;PMS_P2;Temp;Humidity;BMP_temperature;BMP_pressure;BME280_temperature;BME280_humidity;BME280_pressure;Samples;Min_cycle;Max_cycle;Signal;HPM_P1;HPM_P2
2022/06/12 00:01:48;;;;;;;5.70;3.50;;;15.70;75.50;;;;;;5070918;28;20200;-61
2022/06/12 00:04:14;;;;;;;4.30;3.80;;;15.70;75.30;;;;;;5074159;28;20242;-61
2022/06/12 00:06:42;;;;;;;3.63;3.37;;;15.70;75.50;;;;;;5054097;28;20195;-59
2022/06/12 00:09:08;;;;;;;3.80;3.50;;;15.70;75.50;;;;;;5084901;28;20188;-60
2022/06/12 00:11:34;;;;;;;5.10;4.00;;;15.60;75.50;;;;;;5060942;28;20178;-59
2022/06/12 00:14:04;;;;;;;4.23;3.63;;;15.60;75.40;;;;;;5052433;28;20186;-59
2022/06/12 00:16:32;;;;;;;4.47;3.70;;;15.60;75.60;;;;;;5069966;28;20179;-60
2022/06/12 00:18:58;;;;;;;6.40;4.27;;;15.60;75.80;;;;;;5064290;28;20185;-59
2022/06/12 00:21:25;;;;;;;3.83;3.53;;;15.60;75.60;;;;;;5054033;28;20186;-60
2022/06/12 00:24:04;;;;;;;4.63;3.77;;;15.60;75.90;;;;;;5055958;28;20210;-60
2022/06/12 00:26:32;;;;;;;5.37;3.27;;;15.60;75.90;;;;;;5057963;28;20277;-61
2022/06/12 00:29:05;;;;;;;4.70;3.80;;;15.60;76.10;;;;;;5067463;28;20193;-61
2022/06/12 00:31:32;;;;;;;5.00;3.97;;;15.50;76.40;;;;;;5059702;28;20183;-61
2022/06/12 00:33:59;;;;;;;5.97;3.93;;;15.50;76.40;;;;;;5065205;28;20202;-61
2022/06/12 00:36:26;;;;;;;6.00;3.70;;;15.50;76.30;;;;;;5068681;28;20254;-60
2022/06/12 00:38:51;;;;;;;3.90;3.60;;;15.40;76.20;;;;;;5078456;28;20187;-60
2022/06/12 00:41:18;;;;;;;3.43;3.13;;;15.40;76.50;;;;;;5075865;28;20186;-60
2022/06/12 00:43:43;;;;;;;6.57;4.00;;;15.30;76.80;;;;;;5062095;28;20213;-60
2022/06/12 00:46:49;;;;;;;5.90;3.63;;;15.30;76.80;;;;;;5057149;28;20182;-59
2022/06/12 00:49:24;;;;;;;3.77;3.47;;;15.30;77.00;;;;;;5091694;28;20270;-60
2022/06/12 00:52:10;;;;;;;5.87;4.20;;;15.30;76.90;;;;;;5064448;28;20180;-59
2022/06/12 00:54:39;;;;;;;3.60;3.27;;;15.30;76.80;;;;;;5064881;28;20182;-59
2022/06/12 00:57:07;;;;;;;4.60;3.60;;;15.30;76.80;;;;;;5078484;28;20269;-59
2022/06/12 00:59:40;;;;;;;5.03;3.43;;;15.20;77.30;;;;;;5070821;28;20197;-60
2022/06/12 01:02:09;;;;;;;5.67;4.00;;;15.20;77.20;;;;;;5060611;28;20209;-60
2022/06/12 01:07:24;;;;;;;4.00;3.63;;;15.20;77.00;;;;;;5059047;28;20198;-61
2022/06/12 01:09:53;;;;;;;3.80;3.40;;;15.10;77.30;;;;;;5069505;28;20185;-61
2022/06/12 01:12:24;;;;;;;6.33;3.90;;;15.10;77.60;;;;;;5061787;28;20186;-61
2022/06/12 01:15:04;;;;;;;3.83;3.43;;;15.00;77.80;;;;;;5068836;28;20273;-61
2022/06/12 01:17:31;;;;;;;4.07;3.37;;;15.00;77.80;;;;;;5067618;28;20192;-61
2022/06/12 01:20:00;;;;;;;7.73;3.83;;;15.20;77.20;;;;;;5053159;28;20194;-61
2022/06/12 01:22:27;;;;;;;5.97;3.43;;;15.20;77.20;;;;;;5059419;28;20193;-61
2022/06/12 01:25:30;;;;;;;4.93;3.57;;;15.00;77.50;;;;;;5061179;28;20213;-60
2022/06/12 01:28:33;;;;;;;4.97;3.73;;;15.00;77.60;;;;;;5056666;28;20181;-60
2022/06/12 01:31:09;;;;;;;3.70;3.37;;;15.00;77.70;;;;;;5066822;28;20177;-60
2022/06/12 01:33:41;;;;;;;5.10;3.50;;;14.90;78.10;;;;;;5053514;28;20193;-61
2022/06/12 01:36:16;;;;;;;4.83;4.33;;;14.80;78.20;;;;;;5088229;28;20187;-61
2022/06/12 01:38:53;;;;;;;6.20;3.90;;;14.80;78.20;;;;;;5052827;28;20181;-61
2022/06/12 01:41:41;;;;;;;4.10;3.43;;;14.80;78.30;;;;;;5053606;28;20271;-60
2022/06/12 01:44:38;;;;;;;3.83;3.50;;;14.80;78.40;;;;;;5070699;28;20197;-60
2022/06/12 01:47:33;;;;;;;4.40;3.63;;;14.80;78.70;;;;;;5071572;28;20184;-60
2022/06/12 01:50:17;;;;;;;4.50;3.57;;;14.70;78.70;;;;;;5061275;28;20318;-60
2022/06/12 01:52:54;;;;;;;4.40;3.53;;;14.70;78.70;;;;;;5065158;28;20190;-59
2022/06/12 01:55:36;;;;;;;4.33;3.97;;;14.70;78.70;;;;;;5065541;28;20238;-60
2022/06/12 01:58:08;;;;;;;4.23;3.83;;;14.80;78.70;;;;;;5056527;28;20187;-60
2022/06/12 02:00:34;;;;;;;4.13;3.10;;;14.70;78.40;;;;;;5065652;28;20190;-60
2022/06/12 02:03:29;;;;;;;8.17;3.77;;;14.80;78.60;;;;;;5062604;28;20264;-60
2022/06/12 02:06:21;;;;;;;5.13;3.77;;;14.80;78.60;;;;;;5073071;28;20189;-60
2022/06/12 02:09:23;;;;;;;4.50;4.10;;;14.70;78.40;;;;;;5068784;28;20185;-60
2022/06/12 02:15:05;;;;;;;4.90;3.47;;;14.70;78.80;;;;;;5057749;28;20181;-60
2022/06/12 02:17:36;;;;;;;4.63;3.63;;;14.60;78.70;;;;;;5071290;28;20228;-60
2022/06/12 02:20:07;;;;;;;4.70;4.00;;;14.60;78.90;;;;;;5068893;28;20181;-60
2022/06/12 02:22:35;;;;;;;5.37;3.50;;;14.60;79.10;;;;;;5073712;28;20189;-61
2022/06/12 02:25:19;;;;;;;3.50;3.30;;;14.60;79.10;;;;;;5063210;28;20288;-61
2022/06/12 02:27:53;;;;;;;5.07;3.87;;;14.50;79.10;;;;;;5063255;28;20178;-60
2022/06/12 02:30:27;;;;;;;4.23;3.60;;;14.50;79.10;;;;;;5059438;28;20210;-60
2022/06/12 02:32:57;;;;;;;3.57;3.27;;;14.50;79.00;;;;;;5066440;28;20177;-60
2022/06/12 02:35:29;;;;;;;4.00;3.37;;;14.40;79.10;;;;;;5064621;28;20182;-60
2022/06/12 02:38:05;;;;;;;5.47;3.70;;;14.40;79.20;;;;;;5069569;28;20272;-61
2022/06/12 02:40:42;;;;;;;5.80;3.63;;;14.40;79.30;;;;;;5066670;28;20185;-60
2022/06/12 02:43:13;;;;;;;4.47;3.70;;;14.40;79.40;;;;;;5073949;28;20239;-61
2022/06/12 02:45:48;;;;;;;4.40;3.53;;;14.40;79.60;;;;;;5059807;28;20202;-61
2022/06/12 02:48:14;;;;;;;4.30;3.90;;;14.30;79.60;;;;;;5062979;28;20178;-60
2022/06/12 02:50:49;;;;;;;5.43;4.10;;;14.30;79.60;;;;;;5059424;28;20189;-61
2022/06/12 02:53:34;;;;;;;4.37;3.97;;;14.30;79.50;;;;;;5067157;28;20182;-61
2022/06/12 02:56:03;;;;;;;4.70;3.43;;;14.30;79.70;;;;;;5069162;28;20200;-60
2022/06/12 02:59:12;;;;;;;4.07;3.77;;;14.30;79.70;;;;;;5063827;28;20182;-61
2022/06/12 03:01:50;;;;;;;4.07;3.67;;;14.40;79.30;;;;;;4998819;28;20193;-60
2022/06/12 03:04:26;;;;;;;4.17;3.70;;;14.30;79.80;;;;;;5063536;28;20214;-61
2022/06/12 03:06:53;;;;;;;4.17;3.87;;;14.30;79.70;;;;;;5062930;28;20193;-61
2022/06/12 03:09:19;;;;;;;5.00;3.70;;;14.30;79.80;;;;;;5055413;28;20229;-61
2022/06/12 03:11:48;;;;;;;4.33;3.93;;;14.30;79.90;;;;;;5059878;28;20273;-61
2022/06/12 03:14:18;;;;;;;4.67;3.70;;;14.30;80.00;;;;;;5054773;28;20216;-61
2022/06/12 03:16:44;;;;;;;3.67;3.37;;;14.30;79.80;;;;;;5061893;28;20186;-60
2022/06/12 03:19:17;;;;;;;3.77;3.47;;;14.20;80.10;;;;;;5073774;28;20190;-61
2022/06/12 03:22:01;;;;;;;5.57;4.47;;;14.30;80.30;;;;;;5055178;28;20190;-61
2022/06/12 03:24:45;;;;;;;5.03;4.10;;;14.30;80.20;;;;;;5059809;28;20654;-60
2022/06/12 03:27:21;;;;;;;7.13;3.80;;;14.30;80.10;;;;;;5062390;28;20182;-60
2022/06/12 03:30:14;;;;;;;6.07;3.80;;;14.30;80.00;;;;;;5058430;28;20178;-60
2022/06/12 03:33:07;;;;;;;6.83;3.77;;;14.30;80.10;;;;;;5072844;28;20205;-60
2022/06/12 03:35:48;;;;;;;4.40;4.00;;;14.20;80.60;;;;;;5076296;28;20181;-60
2022/06/12 03:38:20;;;;;;;4.73;4.23;;;14.20;80.50;;;;;;5069025;28;20213;-61
2022/06/12 03:41:03;;;;;;;4.10;3.80;;;14.20;80.70;;;;;;5072333;28;20241;-61
2022/06/12 03:43:33;;;;;;;4.80;3.77;;;14.20;80.50;;;;;;5084114;28;20193;-61
2022/06/12 03:46:11;;;;;;;4.13;3.67;;;14.20;80.30;;;;;;5061793;28;20186;-62
2022/06/12 03:48:54;;;;;;;4.17;3.60;;;14.20;80.50;;;;;;5067043;28;20237;-61
2022/06/12 03:51:28;;;;;;;8.40;3.93;;;14.20;80.60;;;;;;5073240;28;20181;-62
2022/06/12 03:54:02;;;;;;;5.13;4.10;;;14.20;80.60;;;;;;5061226;28;20186;-60
2022/06/12 03:59:54;;;;;;;3.80;3.50;;;14.30;80.40;;;;;;5063998;28;20196;-60
2022/06/12 04:02:24;;;;;;;4.03;3.70;;;14.30;80.40;;;;;;5090103;28;20185;-61
2022/06/12 04:04:51;;;;;;;4.23;3.83;;;14.30;80.50;;;;;;5055573;28;20210;-59
2022/06/12 04:07:21;;;;;;;4.77;4.00;;;14.30;80.60;;;;;;5061951;28;20261;-61
2022/06/12 04:09:50;;;;;;;4.30;3.90;;;14.30;80.30;;;;;;5057356;28;20263;-60
2022/06/12 04:12:31;;;;;;;4.53;3.97;;;14.30;80.30;;;;;;5058154;28;20174;-60
2022/06/12 04:15:08;;;;;;;3.97;3.67;;;14.30;80.60;;;;;;5094040;28;20194;-61
2022/06/12 04:17:34;;;;;;;4.17;3.87;;;14.30;80.70;;;;;;5063389;28;20185;-61
2022/06/12 04:20:03;;;;;;;4.57;4.17;;;14.30;80.70;;;;;;5049276;28;20194;-61
2022/06/12 04:22:49;;;;;;;4.73;4.00;;;14.30;80.90;;;;;;5062295;28;20190;-60
2022/06/12 04:25:35;;;;;;;3.97;3.67;;;14.30;81.00;;;;;;5055020;28;20209;-61
2022/06/12 04:28:03;;;;;;;4.43;3.97;;;14.30;81.10;;;;;;5073348;28;20189;-61
2022/06/12 04:30:33;;;;;;;5.27;4.13;;;14.30;81.00;;;;;;5065668;28;20189;-61
2022/06/12 04:33:32;;;;;;;4.30;3.90;;;14.30;81.00;;;;;;5061341;28;20201;-60
2022/06/12 04:36:00;;;;;;;5.93;4.30;;;14.40;81.00;;;;;;5054766;28;20205;-61
2022/06/12 04:38:29;;;;;;;5.63;3.90;;;14.50;80.70;;;;;;5062231;28;20194;-61
2022/06/12 04:40:55;;;;;;;4.07;3.57;;;14.50;80.80;;;;;;5053882;28;20239;-61
2022/06/12 04:43:21;;;;;;;4.37;3.70;;;14.60;80.80;;;;;;5063174;28;20182;-61
2022/06/12 04:45:47;;;;;;;4.17;3.87;;;14.60;80.60;;;;;;5056926;28;20296;-61
2022/06/12 04:48:19;;;;;;;4.40;3.83;;;14.60;80.40;;;;;;5065026;28;20190;-60
2022/06/12 04:50:45;;;;;;;5.57;4.20;;;14.70;80.40;;;;;;5059583;28;20178;-60
2022/06/12 04:53:11;;;;;;;5.80;3.83;;;14.80;80.10;;;;;;5064079;28;20277;-61
2022/06/12 04:55:36;;;;;;;4.93;4.23;;;14.90;79.80;;;;;;5049978;28;20197;-61
2022/06/12 04:58:05;;;;;;;5.07;4.50;;;14.90;79.60;;;;;;5054057;28;20194;-61
2022/06/12 05:00:32;;;;;;;4.60;4.17;;;15.00;79.40;;;;;;5049308;28;20217;-61
2022/06/12 05:02:58;;;;;;;5.77;4.23;;;15.00;79.30;;;;;;5081861;28;20218;-61
2022/06/12 05:05:25;;;;;;;4.33;3.97;;;15.10;78.90;;;;;;5068527;28;20248;-62
2022/06/12 05:07:51;;;;;;;4.83;4.33;;;15.10;78.90;;;;;;5067753;28;20210;-61
2022/06/12 05:10:16;;;;;;;6.17;4.70;;;15.20;78.90;;;;;;5051381;28;20185;-61
2022/06/12 05:12:42;;;;;;;4.17;3.87;;;15.20;79.00;;;;;;5050696;28;20181;-60
2022/06/12 05:15:12;;;;;;;4.47;4.03;;;15.30;78.90;;;;;;5073211;28;20190;-60
2022/06/12 05:17:45;;;;;;;4.23;3.60;;;15.30;79.00;;;;;;5043972;28;20218;-61
2022/06/12 05:20:20;;;;;;;4.53;4.10;;;15.30;79.10;;;;;;5053917;28;20190;-61
2022/06/12 05:22:46;;;;;;;5.13;4.10;;;15.30;79.20;;;;;;5054715;28;20186;-61
2022/06/12 05:25:13;;;;;;;4.00;3.57;;;15.30;79.40;;;;;;5070820;28;20216;-61
2022/06/12 05:27:40;;;;;;;4.23;3.93;;;15.40;79.40;;;;;;5054618;28;20185;-61
2022/06/12 05:30:06;;;;;;;4.93;4.00;;;15.40;79.40;;;;;;5065896;28;20213;-61
2022/06/12 05:32:33;;;;;;;4.30;3.63;;;15.50;79.40;;;;;;5062737;28;20187;-61
2022/06/12 05:34:58;;;;;;;4.60;4.17;;;15.50;79.50;;;;;;5044983;28;20285;-61
2022/06/12 05:37:24;;;;;;;5.40;4.07;;;15.50;79.40;;;;;;5062626;28;20269;-60
2022/06/12 05:39:50;;;;;;;5.40;4.90;;;15.50;79.30;;;;;;5056376;28;20290;-60
2022/06/12 05:42:16;;;;;;;4.80;4.10;;;15.50;79.60;;;;;;5055588;28;20197;-61
2022/06/12 05:44:42;;;;;;;4.23;3.90;;;15.60;79.50;;;;;;5045710;28;20217;-61
2022/06/12 05:47:09;;;;;;;5.53;4.30;;;15.70;79.20;;;;;;5045664;28;20277;-61
2022/06/12 05:49:35;;;;;;;5.53;4.20;;;15.70;79.10;;;;;;5044287;28;20234;-61
2022/06/12 05:52:01;;;;;;;5.33;4.43;;;15.80;79.00;;;;;;5087880;28;20235;-61
2022/06/12 05:54:26;;;;;;;5.40;3.93;;;15.80;79.10;;;;;;5052878;28;20212;-61
2022/06/12 05:56:52;;;;;;;5.17;4.17;;;15.80;79.00;;;;;;5051822;28;20245;-61
2022/06/12 05:59:18;;;;;;;4.70;4.07;;;15.80;79.00;;;;;;5064367;28;20235;-61
2022/06/12 06:01:44;;;;;;;7.37;4.20;;;15.90;79.00;;;;;;5054057;28;20193;-61
2022/06/12 06:04:10;;;;;;;4.53;3.90;;;16.00;79.00;;;;;;5055621;28;20236;-60
2022/06/12 06:06:42;;;;;;;5.83;4.27;;;16.00;79.00;;;;;;5069079;28;20186;-61
2022/06/12 06:09:08;;;;;;;4.13;3.60;;;16.10;78.70;;;;;;5064530;28;20186;-61
2022/06/12 06:11:34;;;;;;;5.00;4.17;;;16.10;78.50;;;;;;5063323;28;20182;-62
2022/06/12 06:14:00;;;;;;;4.40;4.00;;;16.20;78.60;;;;;;5058166;28;20190;-60
2022/06/12 06:16:26;;;;;;;5.07;4.20;;;16.30;78.40;;;;;;5059773;28;20274;-61
2022/06/12 06:18:54;;;;;;;4.73;3.77;;;16.40;78.30;;;;;;5046379;28;20258;-61
2022/06/12 06:21:20;;;;;;;4.50;4.10;;;16.40;78.10;;;;;;5068854;28;20190;-61
2022/06/12 06:23:46;;;;;;;6.13;3.93;;;16.50;77.90;;;;;;5067097;28;20203;-61
2022/06/12 06:26:11;;;;;;;4.53;4.03;;;16.60;78.10;;;;;;5054849;28;20192;-61
2022/06/12 06:28:39;;;;;;;4.10;3.77;;;16.60;78.10;;;;;;5052097;28;20261;-61
2022/06/12 06:31:06;;;;;;;4.97;4.20;;;16.70;78.20;;;;;;5041693;28;20187;-61
2022/06/12 06:33:31;;;;;;;4.27;3.87;;;16.70;78.10;;;;;;5042096;28;20244;-61
2022/06/12 06:35:58;;;;;;;4.47;3.97;;;16.80;78.10;;;;;;5051522;28;20195;-60
2022/06/12 06:38:24;;;;;;;4.47;3.30;;;16.80;77.80;;;;;;5054091;28;20194;-61
2022/06/12 06:40:49;;;;;;;4.90;4.50;;;16.80;77.50;;;;;;5068910;28;20202;-61
2022/06/12 06:43:15;;;;;;;4.43;3.90;;;16.90;77.30;;;;;;5047522;28;20205;-62
2022/06/12 06:48:27;;;;;;;6.03;4.13;;;17.00;76.90;;;;;;5048427;28;20291;-61
2022/06/12 06:50:53;;;;;;;6.87;4.67;;;17.20;76.80;;;;;;5072380;28;20186;-62
2022/06/12 06:53:20;;;;;;;6.77;4.23;;;17.30;76.10;;;;;;5066007;28;20188;-62
2022/06/12 06:55:46;;;;;;;5.37;4.17;;;17.70;73.40;;;;;;5066148;28;20190;-60
2022/06/12 06:58:17;;;;;;;6.53;3.90;;;17.80;72.40;;;;;;5076088;28;20252;-60
2022/06/12 07:00:44;;;;;;;7.23;3.90;;;17.90;70.40;;;;;;5075594;28;20228;-61
2022/06/12 07:03:11;;;;;;;5.67;4.03;;;18.10;70.90;;;;;;5068728;28;20318;-61
2022/06/12 07:05:38;;;;;;;5.47;3.93;;;18.10;71.80;;;;;;5075361;28;20257;-61
2022/06/12 07:08:04;;;;;;;4.07;3.67;;;18.10;72.10;;;;;;5084736;28;20236;-61
2022/06/12 07:10:32;;;;;;;7.27;3.50;;;18.20;71.50;;;;;;5071934;28;20242;-62
2022/06/12 07:12:59;;;;;;;4.67;3.47;;;18.30;69.50;;;;;;5063895;28;20189;-61
2022/06/12 07:15:26;;;;;;;4.60;3.17;;;18.60;67.50;;;;;;5054029;28;20233;-61
2022/06/12 07:17:54;;;;;;;5.43;3.23;;;18.90;65.70;;;;;;5052068;28;20190;-62
2022/06/12 07:20:22;;;;;;;4.63;3.20;;;19.20;65.40;;;;;;5068130;28;20192;-61
2022/06/12 07:22:48;;;;;;;5.33;3.43;;;19.30;64.50;;;;;;5070518;28;20272;-61
2022/06/12 07:25:15;;;;;;;3.77;3.37;;;19.30;65.10;;;;;;5047825;28;20435;-61
2022/06/12 07:27:41;;;;;;;3.93;2.73;;;19.30;62.80;;;;;;5050107;28;20643;-61
2022/06/12 07:30:10;;;;;;;3.73;2.93;;;19.60;61.70;;;;;;5072262;28;20181;-60
2022/06/12 07:32:36;;;;;;;3.60;2.60;;;19.80;59.50;;;;;;5055735;28;20186;-61
2022/06/12 07:35:03;;;;;;;5.30;2.27;;;20.00;58.50;;;;;;5067918;28;20210;-61
2022/06/12 07:37:29;;;;;;;3.63;2.30;;;20.10;55.90;;;;;;5047967;28;20197;-61
2022/06/12 07:39:55;;;;;;;2.90;2.60;;;20.30;55.00;;;;;;5055347;28;20194;-61
2022/06/12 07:42:21;;;;;;;3.53;2.80;;;20.40;56.70;;;;;;5075117;28;20192;-61
2022/06/12 07:44:47;;;;;;;3.60;2.40;;;20.50;56.10;;;;;;5066839;28;20300;-61
2022/06/12 07:47:12;;;;;;;3.70;3.10;;;20.70;56.00;;;;;;5068203;28;20178;-62
2022/06/12 07:49:38;;;;;;;3.27;2.70;;;20.80;56.30;;;;;;5077604;28;20291;-61
2022/06/12 07:52:07;;;;;;;3.37;2.30;;;21.00;55.90;;;;;;5067723;28;20190;-61
2022/06/12 07:54:34;;;;;;;4.53;2.50;;;21.00;55.80;;;;;;5059702;28;20178;-62
2022/06/12 07:56:59;;;;;;;4.40;2.30;;;21.10;55.20;;;;;;5063954;28;20266;-62
2022/06/12 07:59:27;;;;;;;3.80;2.97;;;21.20;55.40;;;;;;5053753;28;20230;-61
2022/06/12 08:01:53;;;;;;;4.40;2.80;;;21.20;55.60;;;;;;5069005;28;20189;-61
2022/06/12 08:04:19;;;;;;;3.87;2.70;;;21.30;56.10;;;;;;5055560;28;20209;-61
2022/06/12 08:06:46;;;;;;;2.73;2.40;;;21.40;56.10;;;;;;5052951;28;20198;-62
2022/06/12 08:09:12;;;;;;;2.83;2.13;;;21.50;56.30;;;;;;5062812;28;20190;-61
2022/06/12 08:11:39;;;;;;;2.20;2.00;;;21.50;54.60;;;;;;5046483;28;20186;-61
2022/06/12 08:14:05;;;;;;;3.07;1.90;;;21.70;52.40;;;;;;5060873;28;20193;-61
2022/06/12 08:16:33;;;;;;;1.63;1.50;;;21.60;53.40;;;;;;5065292;28;20190;-61
2022/06/12 08:18:59;;;;;;;3.70;2.00;;;21.60;51.50;;;;;;5065594;28;20182;-61
2022/06/12 08:21:26;;;;;;;2.70;1.90;;;21.70;51.20;;;;;;5052738;28;20230;-60
2022/06/12 08:23:55;;;;;;;3.20;2.17;;;21.80;49.70;;;;;;5049608;28;20195;-62
2022/06/12 08:26:31;;;;;;;5.00;2.43;;;22.00;52.80;;;;;;5059834;28;20230;-61
2022/06/12 08:29:08;;;;;;;5.23;2.43;;;22.10;51.60;;;;;;5063621;28;20182;-62
2022/06/12 08:31:41;;;;;;;3.27;2.13;;;22.30;49.80;;;;;;5065818;28;20268;-62
2022/06/12 08:34:12;;;;;;;2.77;2.20;;;22.30;51.20;;;;;;5072165;28;20189;-61
2022/06/12 08:36:39;;;;;;;2.77;1.73;;;22.30;50.10;;;;;;5059517;28;20192;-61
2022/06/12 08:39:06;;;;;;;1.93;1.70;;;22.30;47.60;;;;;;5071232;28;20192;-61
2022/06/12 08:41:50;;;;;;;3.20;1.53;;;22.40;49.70;;;;;;5069123;28;20200;-61
2022/06/12 08:44:29;;;;;;;1.90;1.80;;;22.40;49.30;;;;;;5071159;28;20205;-61
2022/06/12 08:47:01;;;;;;;4.93;1.93;;;22.40;49.10;;;;;;5060640;28;20190;-61
2022/06/12 08:49:45;;;;;;;1.63;1.40;;;22.40;48.50;;;;;;5062970;28;20256;-61
2022/06/12 08:52:24;;;;;;;1.93;1.80;;;22.60;47.20;;;;;;5072275;28;20223;-61
2022/06/12 08:55:13;;;;;;;2.50;1.67;;;22.70;45.20;;;;;;5056695;28;20197;-61
2022/06/12 08:57:49;;;;;;;3.00;1.60;;;22.80;47.00;;;;;;5061619;28;20213;-61
2022/06/12 09:00:23;;;;;;;3.03;1.73;;;23.00;45.70;;;;;;5070027;28;20213;-61
2022/06/12 09:02:49;;;;;;;2.37;1.60;;;23.10;45.00;;;;;;5057941;28;20181;-61
2022/06/12 09:05:21;;;;;;;3.90;1.70;;;23.10;46.50;;;;;;5054529;28;20217;-61
2022/06/12 09:07:47;;;;;;;3.23;1.57;;;23.00;46.70;;;;;;5072954;28;20227;-61
2022/06/12 09:10:50;;;;;;;2.60;1.40;;;23.00;46.60;;;;;;5059203;28;20187;-61
2022/06/12 09:13:45;;;;;;;3.07;1.50;;;23.30;44.60;;;;;;5053966;28;20189;-61
2022/06/12 09:16:19;;;;;;;2.67;1.80;;;23.60;44.10;;;;;;5066609;28;20183;-61
2022/06/12 09:18:59;;;;;;;1.63;1.53;;;23.60;43.40;;;;;;5062030;28;20197;-61
2022/06/12 09:21:33;;;;;;;2.70;1.80;;;23.70;44.20;;;;;;5083009;28;20194;-62
2022/06/12 09:24:33;;;;;;;2.20;1.87;;;23.60;45.70;;;;;;5065152;28;20188;-61
2022/06/12 09:27:17;;;;;;;1.93;1.50;;;23.80;44.20;;;;;;5051359;28;20265;-61
2022/06/12 09:30:18;;;;;;;1.80;1.50;;;24.00;43.20;;;;;;5052914;28;20179;-61
2022/06/12 09:32:47;;;;;;;2.87;1.90;;;23.90;44.00;;;;;;5057413;28;20239;-62
2022/06/12 09:36:07;;;;;;;1.63;1.40;;;23.80;44.80;;;;;;5065866;28;20186;-61
2022/06/12 09:39:02;;;;;;;1.93;1.60;;;23.80;44.40;;;;;;5044837;28;20194;-61
2022/06/12 09:42:03;;;;;;;1.87;1.60;;;23.70;43.50;;;;;;5042364;28;20204;-61
2022/06/12 09:44:50;;;;;;;1.70;1.57;;;23.60;44.30;;;;;;5062480;28;20208;-61
2022/06/12 09:47:46;;;;;;;3.20;1.73;;;23.50;46.10;;;;;;5056129;28;20260;-61
2022/06/12 09:50:36;;;;;;;3.40;1.53;;;23.50;45.90;;;;;;5065492;28;20289;-61
2022/06/12 09:53:21;;;;;;;1.83;1.70;;;23.50;44.70;;;;;;5090971;28;20207;-61
2022/06/12 09:55:54;;;;;;;1.70;1.60;;;23.60;45.40;;;;;;5061700;28;20186;-61
2022/06/12 09:58:24;;;;;;;2.23;1.47;;;23.50;45.80;;;;;;5064292;28;20190;-61
2022/06/12 10:00:56;;;;;;;2.40;1.50;;;23.50;47.80;;;;;;5065643;28;20192;-61
2022/06/12 10:03:44;;;;;;;2.00;1.90;;;23.50;47.80;;;;;;5061775;28;20182;-61
2022/06/12 10:06:22;;;;;;;3.40;1.87;;;23.50;48.80;;;;;;5063684;28;20212;-61
2022/06/12 10:09:03;;;;;;;1.60;1.50;;;23.50;46.70;;;;;;5060454;28;20269;-61
2022/06/12 10:11:34;;;;;;;2.20;2.00;;;23.50;47.20;;;;;;5068394;28;20185;-61
2022/06/12 10:14:06;;;;;;;2.97;1.67;;;23.60;45.70;;;;;;5097996;28;20177;-61
2022/06/12 10:16:41;;;;;;;1.70;1.60;;;23.50;45.90;;;;;;5050743;28;20216;-61
2022/06/12 10:19:33;;;;;;;2.63;1.50;;;23.60;46.00;;;;;;5054272;28;20239;-61
2022/06/12 10:22:05;;;;;;;2.70;1.77;;;23.60;45.70;;;;;;5054355;28;20178;-61
2022/06/12 10:24:31;;;;;;;3.40;1.80;;;23.60;46.20;;;;;;5059271;28;20202;-61
2022/06/12 10:27:04;;;;;;;2.27;1.97;;;23.60;45.80;;;;;;5049928;28;20182;-61
2022/06/12 10:29:52;;;;;;;2.70;2.00;;;23.60;44.20;;;;;;5053426;28;20183;-61
2022/06/12 10:32:21;;;;;;;2.27;2.07;;;23.70;44.00;;;;;;5072598;28;20186;-61
2022/06/12 10:34:47;;;;;;;3.47;1.90;;;23.80;45.80;;;;;;5068197;28;20247;-61
2022/06/12 10:37:19;;;;;;;3.07;2.00;;;24.00;46.80;;;;;;5059913;28;20226;-61
2022/06/12 10:39:58;;;;;;;3.23;1.87;;;24.00;46.00;;;;;;5065922;28;20210;-61
2022/06/12 10:42:49;;;;;;;4.57;1.83;;;24.00;45.50;;;;;;5058487;28;20258;-61
2022/06/12 10:45:30;;;;;;;2.77;1.93;;;24.00;44.10;;;;;;5084730;28;20218;-61
2022/06/12 10:48:00;;;;;;;3.93;2.00;;;24.00;43.80;;;;;;5063966;28;20193;-61
2022/06/12 10:50:49;;;;;;;2.30;1.70;;;23.90;43.30;;;;;;5071643;28;20221;-61
2022/06/12 10:53:18;;;;;;;3.23;1.67;;;23.90;44.50;;;;;;5064360;28;20330;-62
2022/06/12 10:55:59;;;;;;;2.20;1.60;;;24.00;45.40;;;;;;5059440;28;20191;-61
2022/06/12 10:59:00;;;;;;;2.07;1.57;;;24.30;42.50;;;;;;5063620;28;20194;-61
2022/06/12 11:02:13;;;;;;;2.33;1.50;;;24.50;43.10;;;;;;5058077;28;20277;-61
2022/06/12 11:04:57;;;;;;;4.87;1.60;;;24.60;45.20;;;;;;5063684;28;20214;-61
2022/06/12 11:07:54;;;;;;;1.73;1.63;;;24.80;43.40;;;;;;5069311;28;20189;-61
2022/06/12 11:10:43;;;;;;;2.47;1.20;;;25.00;40.80;;;;;;5055932;28;20181;-61
2022/06/12 11:13:46;;;;;;;2.60;1.50;;;24.90;40.20;;;;;;5064875;28;20220;-61
2022/06/12 11:16:41;;;;;;;1.97;1.73;;;25.10;40.50;;;;;;5062492;28;20181;-60
2022/06/12 11:19:22;;;;;;;1.93;1.80;;;25.20;40.30;;;;;;5066283;28;20205;-61
2022/06/12 11:21:54;;;;;;;1.97;1.80;;;25.20;40.60;;;;;;5057264;28;20225;-61
2022/06/12 11:24:31;;;;;;;1.67;1.57;;;25.10;41.10;;;;;;5055346;28;20213;-61
2022/06/12 11:27:15;;;;;;;1.53;1.40;;;25.30;41.20;;;;;;5055738;28;20182;-61
2022/06/12 11:29:53;;;;;;;1.60;1.50;;;25.50;45.00;;;;;;5067954;28;20200;-61
2022/06/12 11:32:37;;;;;;;3.13;1.80;;;25.60;44.30;;;;;;5066553;28;20203;-61
2022/06/12 11:35:28;;;;;;;1.63;1.53;;;25.80;43.80;;;;;;5069630;28;20250;-61
2022/06/12 11:38:04;;;;;;;2.33;1.80;;;26.00;43.30;;;;;;5057709;28;20210;-61
2022/06/12 11:40:49;;;;;;;2.00;1.80;;;26.10;45.30;;;;;;5053792;28;20197;-61
2022/06/12 11:43:26;;;;;;;1.40;1.30;;;26.10;46.20;;;;;;5067531;28;20186;-61
2022/06/12 11:46:10;;;;;;;2.43;1.53;;;26.00;44.20;;;;;;5070039;28;20209;-61
2022/06/12 11:48:56;;;;;;;2.47;1.73;;;25.90;45.10;;;;;;5059765;28;20352;-61
2022/06/12 11:52:19;;;;;;;1.80;1.70;;;26.00;47.10;;;;;;5064713;28;20186;-61
2022/06/12 11:55:26;;;;;;;1.77;1.57;;;26.20;44.30;;;;;;5045154;28;20189;-61
2022/06/12 11:57:52;;;;;;;2.40;1.63;;;26.60;46.70;;;;;;5066574;28;20201;-61
2022/06/12 12:00:22;;;;;;;1.60;1.50;;;26.60;41.40;;;;;;5052163;28;20194;-61
2022/06/12 12:03:16;;;;;;;2.60;1.80;;;26.40;44.40;;;;;;5052952;28;20260;-61
2022/06/12 12:05:56;;;;;;;2.90;1.87;;;26.70;36.60;;;;;;5052398;28;20214;-61
2022/06/12 12:08:31;;;;;;;4.53;2.07;;;27.30;38.60;;;;;;5060990;28;20182;-61
2022/06/12 12:11:06;;;;;;;2.03;1.60;;;28.50;38.40;;;;;;5057594;28;20212;-61
2022/06/12 12:13:37;;;;;;;2.60;1.60;;;29.80;34.30;;;;;;5065213;28;20181;-62
2022/06/12 12:16:30;;;;;;;1.87;1.40;;;30.60;31.20;;;;;;5070248;28;20213;-61
2022/06/12 12:19:14;;;;;;;2.90;1.27;;;31.10;29.90;;;;;;5056062;28;20178;-60
2022/06/12 12:21:40;;;;;;;1.53;1.40;;;32.20;28.00;;;;;;5062185;28;20188;-60
2022/06/12 12:24:12;;;;;;;2.17;1.47;;;33.20;26.70;;;;;;5054712;28;20187;-60
2022/06/12 12:26:41;;;;;;;1.27;1.17;;;34.00;26.10;;;;;;5059512;28;20196;-59
2022/06/12 12:29:15;;;;;;;1.77;1.50;;;34.10;25.40;;;;;;5058298;28;20182;-59
2022/06/12 12:31:41;;;;;;;2.60;1.60;;;34.10;27.10;;;;;;5071471;28;20279;-59
2022/06/12 12:34:09;;;;;;;1.83;1.60;;;33.70;26.60;;;;;;5041892;28;20197;-60
2022/06/12 12:42:23;;;;;;;2.40;1.60;;;31.30;32.70;;;;;;5067328;28;20232;-60
2022/06/12 12:44:49;;;;;;;2.63;1.47;;;32.60;30.50;;;;;;5060444;28;20213;-60
2022/06/12 12:47:25;;;;;;;2.47;1.43;;;33.70;32.50;;;;;;5052473;28;20217;-59
2022/06/12 12:50:11;;;;;;;1.60;1.50;;;33.60;31.60;;;;;;5063665;28;20232;-60
2022/06/12 12:52:50;;;;;;;1.50;1.40;;;32.30;28.40;;;;;;5070120;28;20184;-59
2022/06/12 12:55:43;;;;;;;1.97;1.67;;;31.40;34.40;;;;;;5064417;28;20202;-59
2022/06/12 12:58:18;;;;;;;1.30;1.20;;;30.50;35.40;;;;;;5093620;28;20197;-59
2022/06/12 13:00:45;;;;;;;2.20;1.30;;;29.90;36.60;;;;;;5060644;28;20185;-59
2022/06/12 13:03:36;;;;;;;2.27;1.33;;;29.50;38.00;;;;;;5047502;28;20190;-59
2022/06/12 13:06:47;;;;;;;2.30;1.57;;;28.90;35.30;;;;;;5060419;28;20208;-59
2022/06/12 13:09:31;;;;;;;1.53;1.43;;;28.60;39.50;;;;;;5026300;28;20330;-59
2022/06/12 13:12:14;;;;;;;2.10;1.73;;;28.20;42.20;;;;;;5070931;28;20182;-59
2022/06/12 13:14:50;;;;;;;1.63;1.53;;;28.70;38.30;;;;;;5058707;28;20193;-59
2022/06/12 13:17:54;;;;;;;2.57;1.67;;;29.20;36.80;;;;;;5057348;28;20277;-59
2022/06/12 13:20:48;;;;;;;2.80;1.80;;;28.90;35.70;;;;;;5065304;28;20200;-59
2022/06/12 13:23:31;;;;;;;2.63;1.43;;;28.80;40.10;;;;;;5058601;28;20196;-60
2022/06/12 13:26:01;;;;;;;2.10;1.70;;;30.10;36.30;;;;;;5062801;28;20205;-59
2022/06/12 13:28:30;;;;;;;2.83;1.70;;;31.70;32.50;;;;;;5095343;28;20190;-59
2022/06/12 13:30:57;;;;;;;1.40;1.30;;;32.70;31.50;;;;;;5053592;28;20194;-60
2022/06/12 13:33:35;;;;;;;1.50;1.40;;;33.60;30.10;;;;;;5043267;28;20181;-60
2022/06/12 13:36:12;;;;;;;1.63;1.27;;;34.40;27.30;;;;;;5067258;28;20225;-60
2022/06/12 13:38:58;;;;;;;2.00;1.47;;;35.00;28.30;;;;;;5052669;28;20217;-59
2022/06/12 13:41:27;;;;;;;1.48;1.20;;;35.40;30.50;;;;;;5053802;28;20194;-60
2022/06/12 13:43:55;;;;;;;2.22;1.40;;;35.70;26.70;;;;;;5064699;28;20197;-59
2022/06/12 13:46:35;;;;;;;1.40;1.30;;;36.00;26.20;;;;;;5047704;28;20221;-60